Time;durP1;ratioP1;P1;durP2;ratioP2;P2;SDS_P1;SDS_P2;PMS_P1;PMS_P2;Temp;Humidity;BMP_temperature;BMP_pressure;BME280_temperature;BME280_humidity;BME280_pressure;Samples;Min_cycle;Max_cycle;Signal;HPM_P1;HPM_P2
2022/06/07 00:02:29;;;;;;;;;15.80;14.80;;;;;24.80;52.44;99248.34;5150418;27;8839;-74
2022/06/07 00:04:58;;;;;;;;;15.20;15.20;;;;;24.77;52.83;99246.75;5100374;27;8827;-74
2022/06/07 00:07:28;;;;;;;;;19.40;18.00;;;;;24.73;52.66;99250.56;5153859;27;8958;-75
2022/06/07 00:09:57;;;;;;;;;14.80;14.20;;;;;24.67;52.85;99241.16;5153975;27;8922;-74
2022/06/07 00:12:26;;;;;;;;;17.00;17.00;;;;;24.66;52.79;99243.91;5154087;27;8844;-73
2022/06/07 00:14:55;;;;;;;;;15.60;15.60;;;;;24.62;52.89;99253.06;5154293;27;8839;-73
2022/06/07 00:17:25;;;;;;;;;17.80;17.40;;;;;24.59;52.93;99248.75;5117117;27;8816;-74
2022/06/07 00:19:53;;;;;;;;;17.40;16.60;;;;;24.57;53.03;99250.66;5153800;27;8815;-73
2022/06/07 00:22:22;;;;;;;;;16.20;15.00;;;;;24.54;53.24;99242.00;5153254;27;8823;-74
2022/06/07 00:24:50;;;;;;;;;18.20;17.00;;;;;24.52;53.22;99242.97;5100627;27;8931;-74
2022/06/07 00:27:19;;;;;;;;;16.60;16.20;;;;;24.47;53.25;99239.72;5153543;27;8835;-75
2022/06/07 00:29:48;;;;;;;;;17.00;16.00;;;;;24.43;53.67;99240.84;5134775;27;8866;-74
2022/06/07 00:32:20;;;;;;;;;14.20;14.20;;;;;24.43;53.52;99242.69;5134597;27;9105;-74
2022/06/07 00:34:50;;;;;;;;;18.00;17.20;;;;;24.43;53.61;99243.53;5152849;27;9601;-74
2022/06/07 00:37:19;;;;;;;;;17.80;17.80;;;;;24.41;53.75;99233.91;5134657;27;8839;-73
2022/06/07 00:39:48;;;;;;;;;16.40;15.40;;;;;24.35;53.74;99231.63;5134706;27;8865;-74
2022/06/07 00:42:17;;;;;;;;;15.40;14.60;;;;;24.36;53.86;99236.84;5153459;27;8831;-74
2022/06/07 00:44:47;;;;;;;;;18.80;16.80;;;;;24.35;53.64;99232.50;5100071;27;8862;-73
2022/06/07 00:47:18;;;;;;;;;16.60;16.60;;;;;24.36;53.65;99231.53;5153036;27;8844;-74
2022/06/07 00:49:53;;;;;;;;;17.20;16.20;;;;;24.37;53.51;99222.59;5151943;27;8923;-74
2022/06/07 00:52:25;;;;;;;;;16.20;16.20;;;;;24.38;53.70;99234.94;5134658;27;8895;-75
2022/06/07 00:54:54;;;;;;;;;15.80;15.00;;;;;24.39;53.48;99222.50;5134523;27;8835;-74
2022/06/07 00:57:37;;;;;;;;;19.60;19.60;;;;;24.36;53.53;99228.84;5134365;27;8911;-73
2022/06/07 01:00:14;;;;;;;;;17.80;17.80;;;;;24.35;53.61;99223.63;5134639;27;8843;-73
2022/06/07 01:02:44;;;;;;;;;16.20;15.00;;;;;24.33;53.53;99215.75;5152713;27;8839;-73
2022/06/07 01:05:14;;;;;;;;;18.00;18.00;;;;;24.33;53.56;99221.06;5134086;27;8823;-74
2022/06/07 01:10:46;;;;;;;;;16.60;15.80;;;;;24.28;53.69;99215.16;5152868;27;8840;-74
2022/06/07 01:13:25;;;;;;;;;16.00;15.20;;;;;24.22;53.76;99216.41;5133883;27;8835;-73
2022/06/07 01:16:00;;;;;;;;;17.40;17.40;;;;;24.20;53.92;99207.66;5134487;27;8828;-73
2022/06/07 01:18:34;;;;;;;;;16.00;16.00;;;;;24.21;53.88;99204.03;5134105;27;8831;-73
2022/06/07 01:21:20;;;;;;;;;15.20;15.20;;;;;24.20;53.86;99202.31;5134401;27;8831;-75
2022/06/07 01:23:50;;;;;;;;;17.20;16.00;;;;;24.19;53.93;99200.59;5083127;27;8839;-74
2022/06/07 01:26:24;;;;;;;;;18.00;16.40;;;;;24.20;53.86;99198.81;5116630;27;8937;-74
2022/06/07 01:28:52;;;;;;;;;15.60;15.60;;;;;24.18;53.92;99200.69;5133593;27;8847;-74
2022/06/07 01:31:21;;;;;;;;;16.20;16.20;;;;;24.15;53.95;99191.09;5151868;27;8858;-73
2022/06/07 01:33:50;;;;;;;;;18.40;17.60;;;;;24.13;54.26;99196.50;5133734;27;9608;-73
2022/06/07 01:36:20;;;;;;;;;18.60;18.00;;;;;24.12;54.01;99196.59;5133792;27;8839;-73
2022/06/07 01:41:53;;;;;;;;;14.80;14.60;;;;;24.11;54.10;99194.91;5133819;27;8943;-74
2022/06/07 01:41:53;;;;;;;;;18.00;17.40;;;;;24.10;54.16;99194.06;5133397;27;8844;-73
2022/06/07 01:44:27;;;;;;;;;16.80;16.80;;;;;24.07;54.28;99183.56;5099356;27;9608;-73
2022/06/07 01:47:00;;;;;;;;;23.40;20.00;;;;;24.03;54.19;99186.53;5133414;27;8819;-74
2022/06/07 01:49:30;;;;;;;;;18.20;17.80;;;;;23.93;54.54;99189.78;5098956;27;8840;-73
2022/06/07 01:52:00;;;;;;;;;18.60;17.60;;;;;23.89;54.80;99190.03;5087109;28;8856;-73
2022/06/07 01:54:33;;;;;;;;;19.40;18.20;;;;;23.81;54.86;99192.31;5070681;28;9594;-73
2022/06/07 01:57:02;;;;;;;;;12.40;12.40;;;;;23.81;55.06;99179.00;5070499;28;8829;-76
2022/06/07 01:59:30;;;;;;;;;20.00;19.60;;;;;23.77;55.08;99175.63;5053890;28;8872;-73
2022/06/07 02:01:59;;;;;;;;;17.40;17.40;;;;;23.76;55.18;99171.25;5087179;28;8884;-73
2022/06/07 02:04:28;;;;;;;;;20.40;17.60;;;;;23.78;55.14;99172.03;5086823;28;8829;-74
2022/06/07 02:06:56;;;;;;;;;18.40;17.00;;;;;23.79;55.14;99178.25;5087158;28;8841;-74
2022/06/07 02:09:35;;;;;;;;;19.40;18.60;;;;;23.72;55.17;99178.59;5070590;28;8875;-74
2022/06/07 02:12:04;;;;;;;;;20.40;19.00;;;;;23.68;55.39;99182.38;5087468;28;8853;-75
2022/06/07 02:14:34;;;;;;;;;16.80;16.80;;;;;23.69;55.31;99175.25;5087536;28;8849;-74
2022/06/07 02:17:03;;;;;;;;;24.40;21.20;;;;;23.66;55.38;99178.94;5070295;28;8863;-74
2022/06/07 02:19:40;;;;;;;;;19.80;18.60;;;;;23.64;55.33;99172.84;5053796;28;8868;-73
2022/06/07 02:22:09;;;;;;;;;16.80;16.40;;;;;23.64;55.34;99170.19;5058942;27;8867;-74
2022/06/07 02:24:39;;;;;;;;;19.00;19.00;;;;;23.65;55.32;99173.72;5131873;27;8836;-73
2022/06/07 02:27:11;;;;;;;;;18.20;18.20;;;;;23.68;55.08;99173.53;5132235;27;8838;-75
2022/06/07 02:29:44;;;;;;;;;17.80;17.80;;;;;23.67;55.10;99172.69;5132464;27;9652;-75
2022/06/07 02:32:16;;;;;;;;;18.60;17.00;;;;;23.67;54.88;99177.16;5132185;27;8974;-73
2022/06/07 02:34:52;;;;;;;;;18.40;18.40;;;;;23.65;54.71;99177.25;5151068;27;8835;-73
2022/06/07 02:37:22;;;;;;;;;19.40;19.40;;;;;23.56;54.98;99177.78;5151061;27;8839;-74
2022/06/07 02:39:54;;;;;;;;;21.40;19.00;;;;;23.54;54.97;99179.69;5150923;27;8832;-74
2022/06/07 02:42:26;;;;;;;;;19.20;17.20;;;;;23.38;55.55;99177.06;5150939;27;8831;-73
2022/06/07 02:44:57;;;;;;;;;20.40;20.20;;;;;23.19;56.27;99181.78;5150683;27;8869;-74
2022/06/07 02:47:26;;;;;;;;;19.40;19.40;;;;;23.23;55.70;99180.63;5097448;27;8828;-74
2022/06/07 02:50:01;;;;;;;;;17.60;16.40;;;;;23.26;55.76;99183.13;5132280;27;8859;-75
2022/06/07 02:52:32;;;;;;;;;19.80;18.60;;;;;23.25;55.65;99189.38;5131885;27;8970;-75
2022/06/07 02:55:17;;;;;;;;;20.00;20.00;;;;;23.32;55.51;99188.09;5131903;27;8843;-74
2022/06/07 02:57:46;;;;;;;;;19.20;17.40;;;;;23.31;55.53;99181.06;5131928;27;8881;-74
2022/06/07 03:00:18;;;;;;;;;21.80;20.80;;;;;23.33;55.45;99188.00;5132088;27;8807;-74
2022/06/07 03:02:48;;;;;;;;;19.80;18.00;;;;;23.34;55.76;99183.53;5131670;27;9006;-74
2022/06/07 03:05:19;;;;;;;;;16.40;16.40;;;;;23.36;55.55;99186.94;5131988;27;8851;-76
2022/06/07 03:07:56;;;;;;;;;15.20;15.20;;;;;23.35;55.48;99187.91;5131765;27;8946;-73
2022/06/07 03:10:27;;;;;;;;;19.80;18.40;;;;;23.31;55.40;99178.41;5080809;27;9480;-75
2022/06/07 03:12:55;;;;;;;;;18.20;18.20;;;;;23.28;55.51;99187.41;5131444;27;8950;-72
2022/06/07 03:15:28;;;;;;;;;15.40;15.40;;;;;23.31;55.61;99189.06;5081659;27;8823;-74
2022/06/07 03:17:59;;;;;;;;;17.00;17.00;;;;;23.35;55.66;99186.09;5131434;27;9006;-75
2022/06/07 03:20:47;;;;;;;;;37.60;33.40;;;;;23.34;55.38;99178.19;5131653;27;9478;-73
2022/06/07 03:23:16;;;;;;;;;22.60;22.60;;;;;23.25;55.49;99186.72;5131305;27;8831;-72
2022/06/07 03:26:02;;;;;;;;;17.00;16.20;;;;;23.18;56.19;99188.06;5131316;27;8924;-73
2022/06/07 03:28:31;;;;;;;;;20.80;19.60;;;;;23.24;56.01;99187.69;5149921;27;8843;-73
2022/06/07 03:31:08;;;;;;;;;21.40;20.00;;;;;23.27;56.28;99188.38;5131491;27;8858;-74
2022/06/07 03:33:41;;;;;;;;;17.40;17.40;;;;;23.29;56.16;99189.13;5131474;27;8847;-74
2022/06/07 03:36:13;;;;;;;;;21.20;21.20;;;;;23.35;56.23;99190.56;5131812;27;8857;-74
2022/06/07 03:38:42;;;;;;;;;16.80;16.80;;;;;23.35;56.02;99194.09;5135728;27;8831;-73
2022/06/07 03:41:18;;;;;;;;;20.00;19.60;;;;;23.35;56.30;99190.56;5135619;27;8847;-76
2022/06/07 03:43:48;;;;;;;;;21.80;19.80;;;;;23.35;56.04;99195.91;5135137;27;8870;-75
2022/06/07 03:46:19;;;;;;;;;19.40;19.40;;;;;23.40;56.35;99195.63;5083966;27;8828;-74
2022/06/07 03:48:49;;;;;;;;;31.00;29.20;;;;;23.47;56.02;99192.50;5135483;27;8835;-74
2022/06/07 03:51:20;;;;;;;;;25.40;23.60;;;;;23.48;55.84;99185.41;5135172;27;8851;-75
2022/06/07 03:53:52;;;;;;;;;19.60;19.40;;;;;23.49;55.69;99193.25;5135427;27;8859;-74
2022/06/07 03:56:23;;;;;;;;;20.80;20.00;;;;;23.50;55.75;99191.47;5135178;27;8870;-75
2022/06/07 03:58:54;;;;;;;;;23.00;20.60;;;;;23.52;55.66;99192.25;5135122;27;8847;-74
2022/06/07 04:01:25;;;;;;;;;21.20;19.20;;;;;23.53;55.48;99194.81;5134851;27;8851;-75
2022/06/07 04:03:56;;;;;;;;;21.20;21.20;;;;;23.53;55.25;99193.94;5084084;27;8851;-74
2022/06/07 04:06:27;;;;;;;;;18.20;17.40;;;;;23.58;55.32;99189.19;5135178;27;8843;-74
2022/06/07 04:09:01;;;;;;;;;18.40;18.40;;;;;23.67;54.77;99193.13;5135062;27;8832;-73
2022/06/07 04:11:35;;;;;;;;;29.80;25.80;;;;;23.70;54.71;99191.09;5134705;27;8858;-75
2022/06/07 04:14:04;;;;;;;;;22.80;19.60;;;;;23.78;54.52;99188.00;5134992;27;9613;-74
2022/06/07 04:16:33;;;;;;;;;36.50;33.75;;;;;23.88;54.33;99193.66;5083721;27;8831;-75
2022/06/07 04:19:17;;;;;;;;;21.40;19.60;;;;;23.92;54.07;99192.50;5107373;27;8847;-73
2022/06/07 04:21:46;;;;;;;;;19.60;18.60;;;;;23.98;53.55;99192.13;5134676;27;8850;-73
2022/06/07 04:24:35;;;;;;;;;20.00;18.80;;;;;24.10;53.34;99188.72;5134664;27;8861;-75
2022/06/07 04:27:05;;;;;;;;;50.00;42.67;;;;;24.20;53.20;99194.34;5135054;27;8882;-74
2022/06/07 04:29:35;;;;;;;;;24.20;23.40;;;;;24.33;53.26;99191.75;5134744;27;8863;-76
2022/06/07 04:32:12;;;;;;;;;19.80;18.00;;;;;24.43;52.76;99186.69;5117740;27;8847;-75
2022/06/07 04:34:42;;;;;;;;;23.60;21.00;;;;;24.55;52.69;99195.75;5134831;27;8835;-74
2022/06/07 04:37:13;;;;;;;;;20.00;19.60;;;;;24.68;52.60;99189.53;5134712;27;8835;-74
2022/06/07 04:39:42;;;;;;;;;23.00;20.20;;;;;24.72;52.74;99192.84;5134435;27;8950;-73
2022/06/07 04:42:14;;;;;;;;;29.00;27.80;;;;;24.82;52.10;99183.31;5111611;27;8890;-74
2022/06/07 04:44:58;;;;;;;;;26.40;26.40;;;;;24.88;51.91;99180.22;5080242;28;8932;-74
2022/06/07 04:47:50;;;;;;;;;26.20;25.80;;;;;24.97;51.78;99184.13;5092526;28;8847;-75
2022/06/07 04:50:20;;;;;;;;;26.20;23.80;;;;;25.12;51.79;99181.38;5093343;28;8823;-74
2022/06/07 04:52:48;;;;;;;;;18.60;16.80;;;;;25.09;51.99;99187.78;5093216;28;8860;-75
2022/06/07 04:55:18;;;;;;;;;37.00;33.75;;;;;25.12;51.84;99182.22;5110387;27;8867;-74
2022/06/07 04:57:48;;;;;;;;;24.20;23.00;;;;;25.15;51.58;99184.69;5152797;27;8854;-74
2022/06/07 05:00:20;;;;;;;;;20.60;19.80;;;;;25.19;51.24;99183.53;5133804;27;8845;-72
2022/06/07 05:02:58;;;;;;;;;23.00;21.20;;;;;25.33;51.07;99189.78;5133264;27;8847;-74
2022/06/07 05:05:30;;;;;;;;;17.80;17.00;;;;;24.89;51.30;99186.41;5133425;27;8851;-74
2022/06/07 05:08:03;;;;;;;;;22.40;22.40;;;;;24.85;51.46;99191.09;5133464;27;8827;-75
2022/06/07 05:10:32;;;;;;;;;22.40;20.40;;;;;24.97;51.00;99192.13;5065226;27;8824;-74
2022/06/07 05:13:05;;;;;;;;;23.60;20.80;;;;;25.10;50.88;99192.13;5082985;27;8875;-75
2022/06/07 05:15:38;;;;;;;;;21.80;20.00;;;;;25.11;50.22;99188.53;5084358;27;8955;-74
2022/06/07 05:18:12;;;;;;;;;20.20;20.20;;;;;25.38;49.89;99193.00;5133057;27;8824;-73
2022/06/07 05:20:44;;;;;;;;;19.20;19.00;;;;;25.54;50.00;99191.03;5132869;27;8847;-75
2022/06/07 05:23:16;;;;;;;;;21.20;21.20;;;;;25.72;49.30;99201.41;5133234;27;8923;-74
2022/06/07 05:25:57;;;;;;;;;23.60;23.40;;;;;25.68;48.91;99201.59;5068002;27;8843;-74
2022/06/07 05:28:28;;;;;;;;;20.80;19.60;;;;;25.46;49.74;99204.91;5151813;27;8998;-77
2022/06/07 05:30:59;;;;;;;;;25.40;21.80;;;;;25.59;49.64;99196.88;5082256;27;8828;-75
2022/06/07 05:33:40;;;;;;;;;19.60;18.60;;;;;25.74;49.14;99196.78;5133165;27;8854;-74
2022/06/07 05:36:10;;;;;;;;;17.80;17.80;;;;;25.88;48.42;99202.06;5133284;27;8874;-75
2022/06/07 05:38:47;;;;;;;;;17.80;17.20;;;;;25.88;48.16;99200.22;5133152;27;8855;-75
2022/06/07 05:41:23;;;;;;;;;14.00;14.00;;;;;25.88;47.88;99205.56;5132747;27;8861;-74
2022/06/07 05:43:56;;;;;;;;;16.00;15.80;;;;;25.93;48.52;99199.09;5132608;27;10047;-75
2022/06/07 05:46:33;;;;;;;;;19.80;19.80;;;;;25.98;47.65;99208.47;5132565;27;8855;-75
2022/06/07 05:49:13;;;;;;;;;21.60;20.00;;;;;26.02;48.64;99204.63;5132816;27;8935;-76
2022/06/07 05:52:03;;;;;;;;;18.80;17.80;;;;;26.13;48.71;99205.72;5150507;27;8847;-75
2022/06/07 05:54:34;;;;;;;;;20.20;19.80;;;;;26.17;49.00;99197.34;5132833;27;9497;-75
2022/06/07 05:57:06;;;;;;;;;20.60;20.60;;;;;26.24;48.44;99198.63;5132604;27;8839;-75
2022/06/07 05:59:37;;;;;;;;;19.20;18.20;;;;;26.38;48.57;99194.13;5132421;27;8982;-74
2022/06/07 06:02:06;;;;;;;;;19.40;19.40;;;;;26.51;48.31;99191.44;5132383;27;8882;-73
2022/06/07 06:04:39;;;;;;;;;20.40;18.20;;;;;26.64;48.13;99194.94;5086523;28;8842;-72
2022/06/07 06:07:10;;;;;;;;;21.60;20.60;;;;;26.70;48.37;99197.16;5069823;28;8845;-76
2022/06/07 06:12:39;;;;;;;;;17.00;17.00;;;;;27.08;47.31;99196.16;5053447;28;8979;-75
2022/06/07 06:15:15;;;;;;;;;18.00;18.00;;;;;27.12;46.95;99186.94;5022787;28;8833;-75
2022/06/07 06:17:44;;;;;;;;;19.20;18.00;;;;;27.33;46.38;99183.63;5070065;28;8852;-75
2022/06/07 06:20:21;;;;;;;;;19.60;18.40;;;;;27.50;46.98;99185.03;5039373;28;9160;-75
2022/06/07 06:22:53;;;;;;;;;19.60;19.40;;;;;27.57;47.04;99189.78;5070410;28;9051;-73
2022/06/07 06:25:22;;;;;;;;;20.00;20.00;;;;;27.60;47.06;99188.72;5003930;28;8845;-75
2022/06/07 06:27:51;;;;;;;;;16.60;16.40;;;;;27.74;46.66;99193.00;5085649;28;8857;-73
2022/06/07 06:30:23;;;;;;;;;23.60;23.00;;;;;27.84;46.45;99191.31;5052577;28;8854;-74
2022/06/07 06:33:09;;;;;;;;;20.00;19.00;;;;;27.88;45.90;99191.91;5069041;28;8846;-74
2022/06/07 06:35:37;;;;;;;;;20.80;19.60;;;;;27.92;45.62;99191.63;5094578;27;8839;-75
2022/06/07 06:38:06;;;;;;;;;19.00;18.60;;;;;27.98;45.56;99183.09;5080427;27;9575;-74
2022/06/07 06:40:39;;;;;;;;;22.00;21.60;;;;;27.90;44.99;99188.19;5131606;27;8853;-75
2022/06/07 06:43:08;;;;;;;;;21.00;21.00;;;;;27.96;45.09;99192.22;5131221;27;9557;-74
2022/06/07 06:46:04;;;;;;;;;17.40;16.80;;;;;27.95;45.72;99191.34;5146633;27;8915;-73
2022/06/07 06:48:34;;;;;;;;;18.20;17.40;;;;;28.04;45.59;99191.63;5131607;27;8892;-74
2022/06/07 06:51:05;;;;;;;;;18.20;18.20;;;;;28.03;45.61;99192.59;5150102;27;9660;-74
2022/06/07 06:53:34;;;;;;;;;18.80;18.80;;;;;27.97;45.81;99189.41;5131252;27;8844;-74
2022/06/07 06:56:12;;;;;;;;;19.00;19.00;;;;;27.98;45.99;99188.44;5083241;27;8913;-75
2022/06/07 06:58:45;;;;;;;;;21.40;20.40;;;;;28.06;45.58;99181.63;5131034;27;8960;-75
2022/06/07 07:01:22;;;;;;;;;16.00;15.20;;;;;28.05;45.25;99186.13;5131534;27;8934;-74
2022/06/07 07:03:56;;;;;;;;;17.40;17.40;;;;;28.01;44.63;99184.66;5131351;27;8893;-75
2022/06/07 07:06:25;;;;;;;;;18.20;18.20;;;;;27.97;44.94;99181.34;5149625;27;8867;-73
2022/06/07 07:08:55;;;;;;;;;19.00;19.00;;;;;28.02;44.69;99182.84;5131153;27;8803;-76
2022/06/07 07:11:28;;;;;;;;;20.20;19.20;;;;;27.98;44.41;99180.41;5131147;27;8887;-75
2022/06/07 07:14:01;;;;;;;;;20.00;19.20;;;;;28.05;44.64;99178.06;5149976;27;8839;-75
2022/06/07 07:16:33;;;;;;;;;17.00;17.00;;;;;28.00;44.79;99183.81;5131229;27;8847;-75
2022/06/07 07:19:04;;;;;;;;;19.40;18.80;;;;;27.96;44.94;99184.19;5149644;27;8966;-75
2022/06/07 07:21:36;;;;;;;;;17.80;16.80;;;;;28.02;44.88;99180.16;5131084;27;8823;-75
2022/06/07 07:24:13;;;;;;;;;17.80;17.00;;;;;28.06;44.82;99179.78;5130892;27;9010;-74
2022/06/07 07:26:46;;;;;;;;;18.60;17.60;;;;;28.08;44.48;99182.34;5130431;27;8835;-75
2022/06/07 07:29:18;;;;;;;;;17.80;17.80;;;;;28.03;44.63;99174.66;5130700;27;8856;-74
2022/06/07 07:31:50;;;;;;;;;18.80;17.60;;;;;28.00;44.54;99178.44;5130993;27;8819;-75
2022/06/07 07:34:22;;;;;;;;;18.00;17.80;;;;;27.91;44.55;99176.50;5131456;27;8831;-73
2022/06/07 07:36:54;;;;;;;;;16.80;16.80;;;;;27.95;44.46;99169.91;5130992;27;8851;-74
2022/06/07 07:39:28;;;;;;;;;16.20;15.20;;;;;27.96;44.30;99174.31;5130899;27;8954;-74
2022/06/07 07:41:58;;;;;;;;;16.60;16.60;;;;;28.02;44.24;99161.41;5149312;27;8839;-74
2022/06/07 07:44:30;;;;;;;;;20.20;18.00;;;;;28.07;43.93;99159.19;5096971;27;8847;-74
2022/06/07 07:47:03;;;;;;;;;15.60;15.20;;;;;28.02;44.53;99159.56;5130894;27;8851;-75
2022/06/07 07:49:36;;;;;;;;;19.40;18.20;;;;;28.14;44.32;99155.91;5131157;27;8839;-75
2022/06/07 07:52:07;;;;;;;;;13.80;13.80;;;;;28.08;44.16;99161.75;5131008;27;8820;-74
2022/06/07 07:54:36;;;;;;;;;16.00;15.80;;;;;28.07;44.31;99153.84;5130388;27;8847;-74
2022/06/07 07:57:10;;;;;;;;;19.40;18.80;;;;;28.06;44.22;99152.97;5130494;27;8835;-75
2022/06/07 07:59:45;;;;;;;;;18.20;16.00;;;;;28.09;43.96;99158.13;5130880;27;8879;-73
2022/06/07 08:02:18;;;;;;;;;17.80;16.80;;;;;28.00;44.18;99154.31;5113753;27;8835;-74
2022/06/07 08:04:51;;;;;;;;;17.80;16.40;;;;;27.88;44.97;99157.94;5106519;28;8857;-74
2022/06/07 08:07:20;;;;;;;;;16.00;15.20;;;;;27.91;45.02;99154.19;5106533;28;8864;-72
2022/06/07 08:09:48;;;;;;;;;15.60;15.60;;;;;28.03;44.87;99145.19;5071877;28;8968;-74
2022/06/07 08:12:17;;;;;;;;;15.40;15.40;;;;;28.13;44.20;99146.16;5072836;28;8833;-74
2022/06/07 08:14:45;;;;;;;;;14.60;14.00;;;;;28.21;44.25;99148.22;5108848;28;8833;-76
2022/06/07 08:17:14;;;;;;;;;16.80;15.20;;;;;28.31;44.35;99143.81;5074818;28;8865;-75
2022/06/07 08:19:44;;;;;;;;;15.40;14.20;;;;;28.18;44.58;99141.25;5118209;28;8963;-76
2022/06/07 08:22:13;;;;;;;;;15.80;15.00;;;;;28.30;44.39;99138.56;5116748;28;8841;-74
2022/06/07 08:24:42;;;;;;;;;16.40;16.20;;;;;28.31;44.82;99141.13;5120011;28;8953;-74
2022/06/07 08:27:10;;;;;;;;;16.40;16.40;;;;;28.53;44.36;99142.13;5114475;28;8900;-75
2022/06/07 08:29:39;;;;;;;;;16.20;15.60;;;;;28.60;44.21;99135.25;5091977;28;8833;-75
2022/06/07 08:32:09;;;;;;;;;15.20;15.00;;;;;28.65;43.99;99129.53;5111671;28;8857;-74
2022/06/07 08:37:39;;;;;;;;;17.20;15.80;;;;;28.77;43.72;99124.00;5111335;28;8845;-77
2022/06/07 08:40:11;;;;;;;;;13.40;13.40;;;;;28.62;44.05;99121.72;5110180;28;8853;-75
2022/06/07 08:42:49;;;;;;;;;12.20;12.20;;;;;28.73;44.03;99117.19;5111798;28;8991;-77
2022/06/07 08:45:23;;;;;;;;;15.60;15.40;;;;;28.87;43.94;99112.50;5111717;28;8960;-75
2022/06/07 08:47:55;;;;;;;;;17.80;14.20;;;;;28.94;42.78;99117.22;5111290;28;8892;-74
2022/06/07 08:50:26;;;;;;;;;11.40;11.40;;;;;28.77;42.45;99113.28;5088153;28;8869;-74
2022/06/07 08:52:58;;;;;;;;;13.40;11.00;;;;;28.82;42.13;99114.72;5070859;28;9647;-76
2022/06/07 08:55:32;;;;;;;;;12.20;9.00;;;;;28.84;41.74;99108.22;5087923;28;8845;-75
2022/06/07 08:58:06;;;;;;;;;12.40;11.60;;;;;28.90;41.73;99102.38;5088350;28;8842;-75
2022/06/07 09:00:36;;;;;;;;;13.00;12.40;;;;;28.86;41.77;99102.72;5088147;28;8861;-75
2022/06/07 09:03:38;;;;;;;;;12.00;11.80;;;;;28.94;42.30;99102.94;5043928;28;8903;-76
2022/06/07 09:06:18;;;;;;;;;11.20;11.20;;;;;29.06;42.44;99098.38;5108362;28;8975;-75
2022/06/07 09:08:51;;;;;;;;;14.60;14.60;;;;;29.13;42.22;99097.75;5108725;28;8813;-75
2022/06/07 09:14:29;;;;;;;;;13.60;13.60;;;;;29.24;42.27;99080.72;5067562;28;8946;-74
2022/06/07 09:16:58;;;;;;;;;11.60;11.60;;;;;29.19;42.07;99082.09;5067479;28;8960;-75
2022/06/07 09:19:29;;;;;;;;;11.60;11.60;;;;;29.09;39.76;99082.88;5067322;28;8825;-75
2022/06/07 09:22:07;;;;;;;;;12.80;10.40;;;;;29.04;40.11;99073.50;5067396;28;8959;-75
2022/06/07 09:24:41;;;;;;;;;12.20;11.00;;;;;29.02;40.10;99078.13;5067491;28;8843;-76
2022/06/07 09:27:16;;;;;;;;;10.00;10.00;;;;;29.07;40.49;99073.22;5067238;28;8848;-74
2022/06/07 09:29:53;;;;;;;;;13.20;12.60;;;;;29.12;40.00;99062.94;5067019;28;9582;-75
2022/06/07 09:32:25;;;;;;;;;13.00;13.00;;;;;28.96;40.65;99066.94;5067329;28;9558;-74
2022/06/07 09:34:58;;;;;;;;;10.60;10.60;;;;;28.95;40.75;99053.66;5067074;28;8933;-73
2022/06/07 09:37:33;;;;;;;;;11.00;10.80;;;;;28.86;40.16;99051.75;5068757;28;8917;-73
2022/06/07 09:40:27;;;;;;;;;9.60;9.00;;;;;28.78;39.94;99063.97;5052703;28;8863;-76
2022/06/07 09:43:03;;;;;;;;;10.00;10.00;;;;;28.85;39.95;99060.78;5035356;28;8851;-76
2022/06/07 09:45:37;;;;;;;;;11.40;10.00;;;;;28.90;39.86;99058.53;5067982;28;8828;-78
2022/06/07 09:48:28;;;;;;;;;11.40;11.40;;;;;28.94;40.63;99049.25;5054169;27;8842;-76
2022/06/07 09:51:00;;;;;;;;;11.40;11.40;;;;;29.04;40.09;99047.50;5130642;27;8854;-75
2022/06/07 09:53:35;;;;;;;;;10.20;10.20;;;;;28.99;40.19;99047.03;5130325;27;8860;-75
2022/06/07 09:56:20;;;;;;;;;10.40;10.20;;;;;29.02;40.08;99048.59;5130448;27;8846;-75
2022/06/07 09:59:02;;;;;;;;;10.60;10.60;;;;;29.13;39.64;99037.81;5130288;27;8876;-74
2022/06/07 10:01:38;;;;;;;;;11.20;11.20;;;;;29.18;38.76;99042.81;5130088;27;8906;-74
2022/06/07 10:04:14;;;;;;;;;9.80;9.00;;;;;29.32;39.04;99031.72;5145488;27;8946;-74
2022/06/07 10:06:48;;;;;;;;;10.40;10.40;;;;;29.45;38.57;99042.25;5151136;27;8843;-74
2022/06/07 10:09:29;;;;;;;;;14.80;13.80;;;;;29.44;38.06;99037.88;5151380;27;8843;-77
2022/06/07 10:12:12;;;;;;;;;10.40;10.00;;;;;29.40;37.46;99026.53;5150941;27;8843;-75
2022/06/07 10:14:47;;;;;;;;;9.80;9.80;;;;;29.32;37.75;99018.28;5150574;27;8869;-75
2022/06/07 10:17:47;;;;;;;;;9.80;9.80;;;;;29.49;38.03;99024.84;5150678;27;8839;-76
2022/06/07 10:20:23;;;;;;;;;11.40;10.80;;;;;29.47;37.61;99021.47;5046236;28;8882;-75
2022/06/07 10:23:10;;;;;;;;;10.80;9.80;;;;;29.54;38.42;99019.94;5046418;28;8846;-75
2022/06/07 10:25:55;;;;;;;;;10.20;10.20;;;;;29.61;38.06;99025.66;5046348;28;8866;-74
2022/06/07 10:28:32;;;;;;;;;11.80;11.40;;;;;29.55;39.25;99019.81;5046431;28;8862;-74
2022/06/07 10:31:06;;;;;;;;;12.00;11.00;;;;;29.48;38.54;99021.34;5012864;28;8891;-75
2022/06/07 10:33:54;;;;;;;;;12.60;12.60;;;;;29.65;38.84;99022.53;5029496;28;8842;-74
2022/06/07 10:36:39;;;;;;;;;13.00;12.40;;;;;29.78;38.17;99011.59;5046411;28;9247;-76
2022/06/07 10:39:31;;;;;;;;;12.80;11.80;;;;;29.86;37.90;99014.44;5046205;28;8944;-74
2022/06/07 10:42:09;;;;;;;;;11.20;10.20;;;;;29.93;37.89;99012.06;5046596;28;8853;-74
2022/06/07 10:44:45;;;;;;;;;11.60;11.00;;;;;29.99;37.65;98997.22;5046954;28;8846;-74
2022/06/07 10:47:23;;;;;;;;;12.80;11.20;;;;;30.07;37.26;98994.66;5045305;28;8850;-74
2022/06/07 10:49:58;;;;;;;;;9.80;9.80;;;;;30.14;36.72;98990.44;5045954;28;8842;-75
2022/06/07 10:52:34;;;;;;;;;11.40;11.40;;;;;30.24;36.88;98990.44;5045643;28;8857;-75
2022/06/07 10:55:14;;;;;;;;;13.60;13.00;;;;;30.31;37.61;98978.97;5013180;28;8853;-75
2022/06/07 10:57:55;;;;;;;;;12.80;12.80;;;;;30.47;36.64;98989.22;5097011;27;8843;-74
2022/06/07 11:00:38;;;;;;;;;11.60;11.60;;;;;30.56;36.67;98987.50;5150159;27;8831;-76
2022/06/07 11:03:18;;;;;;;;;10.20;9.60;;;;;30.40;36.54;98979.19;5131172;27;9642;-75
2022/06/07 11:11:33;;;;;;;;;10.60;10.00;;;;;30.75;35.97;98978.56;5149889;27;8835;-74
2022/06/07 11:14:14;;;;;;;;;10.00;7.80;;;;;30.92;35.28;98970.78;5149937;27;8863;-74
2022/06/07 11:16:54;;;;;;;;;9.00;9.00;;;;;31.11;33.87;98969.88;5150256;27;8860;-74
2022/06/07 11:19:22;;;;;;;;;10.00;9.20;;;;;31.26;33.31;98968.41;5149384;27;8832;-74
2022/06/07 11:21:56;;;;;;;;;9.60;9.60;;;;;31.33;32.42;98966.00;5149949;27;8835;-75
2022/06/07 11:24:29;;;;;;;;;11.40;11.40;;;;;31.44;33.07;98955.84;5149851;27;8851;-73
2022/06/07 11:27:22;;;;;;;;;10.40;10.40;;;;;31.51;32.83;98955.28;5149689;27;8910;-74
2022/06/07 11:30:20;;;;;;;;;11.20;11.20;;;;;31.62;32.57;98938.91;5080065;27;8923;-75
2022/06/07 11:32:54;;;;;;;;;9.20;9.20;;;;;31.73;32.13;98944.09;5150114;27;9600;-75
2022/06/07 11:35:47;;;;;;;;;9.20;9.20;;;;;31.78;31.85;98947.19;5150066;27;8815;-75
2022/06/07 11:38:33;;;;;;;;;9.00;9.00;;;;;31.95;31.34;98942.84;5150754;27;8847;-74
2022/06/07 11:41:38;;;;;;;;;12.40;9.80;;;;;32.17;30.79;98941.53;5045979;28;8971;-75
2022/06/07 11:44:30;;;;;;;;;9.00;9.00;;;;;32.48;30.27;98945.69;4989403;28;8839;-75
2022/06/07 11:47:02;;;;;;;;;8.40;8.40;;;;;32.72;29.51;98932.41;5005470;28;8904;-74
2022/06/07 11:49:40;;;;;;;;;9.00;8.80;;;;;32.75;28.87;98937.50;5005261;28;9008;-74
2022/06/07 11:52:23;;;;;;;;;9.80;9.80;;;;;32.77;28.97;98932.78;5005396;28;8874;-74
2022/06/07 11:54:57;;;;;;;;;8.80;8.80;;;;;33.03;28.56;98930.09;5005184;28;8851;-74
2022/06/07 11:58:00;;;;;;;;;8.60;8.60;;;;;33.34;28.86;98921.50;5006774;28;10227;-75
2022/06/07 12:00:50;;;;;;;;;12.80;12.80;;;;;33.68;28.15;98920.63;5009077;28;8874;-74
2022/06/07 12:03:34;;;;;;;;;16.40;16.40;;;;;33.67;28.40;98923.50;5009052;28;8851;-74
2022/06/07 12:06:21;;;;;;;;;14.80;14.60;;;;;34.03;28.74;98909.72;5009001;28;8846;-75
2022/06/07 12:08:56;;;;;;;;;14.40;13.40;;;;;34.53;27.94;98901.47;5009003;28;8881;-74
2022/06/07 12:11:28;;;;;;;;;12.40;12.40;;;;;35.04;27.30;98898.50;5008995;28;8920;-75
2022/06/07 12:14:24;;;;;;;;;12.00;11.20;;;;;35.58;26.53;98895.09;5008860;28;8886;-75
2022/06/07 12:16:58;;;;;;;;;10.80;10.60;;;;;35.96;26.23;98897.13;5008705;28;8850;-75
2022/06/07 12:19:29;;;;;;;;;10.00;10.00;;;;;36.05;26.09;98905.03;5083228;28;8861;-75